createdAt,value
2022-10-09T00:01:22.451Z,99609.22
2022-10-09T00:03:53.235Z,99603.25
2022-10-09T00:06:27.201Z,99602.53
2022-10-09T00:08:54.439Z,99607.22
2022-10-09T00:11:28.376Z,99605.38
2022-10-09T00:13:56.627Z,99608.09
2022-10-09T00:16:25.221Z,99599.88
2022-10-09T00:18:52.478Z,99604.50
2022-10-09T00:21:28.159Z,99601.06
2022-10-09T00:23:58.057Z,99602.47
2022-10-09T00:26:26.358Z,99599.53
2022-10-09T00:28:54.469Z,99605.66
2022-10-09T00:31:22.684Z,99596.34
2022-10-09T00:33:50.008Z,99599.94
2022-10-09T00:36:21.253Z,99592.69
2022-10-09T00:38:48.932Z,99591.03
2022-10-09T00:41:23.643Z,99589.38
2022-10-09T00:44:00.465Z,99585.75
2022-10-09T00:46:44.121Z,99587.63
2022-10-09T00:49:30.715Z,99582.25
2022-10-09T00:52:03.501Z,99590.16
2022-10-09T00:54:35.721Z,99584.72
2022-10-09T00:57:03.924Z,99591.97
2022-10-09T00:59:32.071Z,99583.22
2022-10-09T01:01:59.983Z,99584.06
2022-10-09T01:04:27.646Z,99580.63
2022-10-09T01:07:17.382Z,99579.94
2022-10-09T01:10:01.326Z,99572.97
2022-10-09T01:13:07.271Z,99579.53
2022-10-09T01:16:01.903Z,99579.53
2022-10-09T01:19:25.457Z,99576.97
2022-10-09T01:22:30.618Z,99575.31
2022-10-09T01:25:08.611Z,99567.38
2022-10-09T01:28:32.650Z,99576.47
2022-10-09T01:31:03.695Z,99562.53
2022-10-09T01:33:32.947Z,99554.28
2022-10-09T01:36:56.946Z,99555.16
2022-10-09T01:40:20.523Z,99553.38
2022-10-09T01:42:47.844Z,99554.44
2022-10-09T01:45:16.166Z,99548.09
2022-10-09T01:48:39.604Z,99543.69
2022-10-09T01:51:07.131Z,99537.56
2022-10-09T01:54:31.001Z,99543.03
2022-10-09T01:57:54.497Z,99539.47
2022-10-09T02:01:18.303Z,99527.03
2022-10-09T02:03:49.404Z,99529.03
2022-10-09T02:06:19.330Z,99525.41
2022-10-09T02:09:42.842Z,99524.63
2022-10-09T02:12:12.883Z,99520.41
2022-10-09T02:15:36.269Z,99512.47
2022-10-09T02:18:59.576Z,99508.09
2022-10-09T02:21:37.960Z,99511.72
2022-10-09T02:24:11.380Z,99511.72
2022-10-09T02:26:39.422Z,99504.56
2022-10-09T02:29:07.086Z,99508.28
2022-10-09T02:31:38.174Z,99509.16
2022-10-09T02:34:30.397Z,99508.56
2022-10-09T02:36:58.031Z,99501.41
2022-10-09T02:39:25.222Z,99499.78
2022-10-09T02:41:52.265Z,99494.41
2022-10-09T02:44:19.476Z,99501.72
2022-10-09T02:46:47.047Z,99497.03
2022-10-09T02:49:14.574Z,99501.59
2022-10-09T02:51:42.015Z,99508.94
2022-10-09T02:54:09.895Z,99496.34
2022-10-09T02:56:39.103Z,99492.59
2022-10-09T02:59:07.651Z,99501.88
2022-10-09T03:01:35.597Z,99495.56
2022-10-09T03:04:03.901Z,99505.56
2022-10-09T03:06:32.010Z,99498.25
2022-10-09T03:08:59.710Z,99503.75
2022-10-09T03:11:27.396Z,99497.53
2022-10-09T03:13:55.323Z,99492.25
2022-10-09T03:16:24.361Z,99499.47
2022-10-09T03:18:53.272Z,99496.78
2022-10-09T03:21:22.986Z,99495.13
2022-10-09T03:23:51.144Z,99497.91
2022-10-09T03:26:23.545Z,99496.16
2022-10-09T03:28:51.838Z,99487.28
2022-10-09T03:31:46.917Z,99488.16
2022-10-09T03:34:11.323Z,99495.50
2022-10-09T03:36:39.215Z,99494.66
2022-10-09T03:39:06.696Z,99493.81
2022-10-09T03:41:34.175Z,99500.19
2022-10-09T03:44:01.673Z,99494.06
2022-10-09T03:46:29.146Z,99498.50
2022-10-09T03:48:56.678Z,99495.84
2022-10-09T03:51:24.236Z,99490.47
2022-10-09T03:53:51.733Z,99481.50
2022-10-09T03:56:19.497Z,99496.81
2022-10-09T03:58:47.450Z,99487.03
2022-10-09T04:01:15.881Z,99481.75
2022-10-09T04:03:43.773Z,99485.41
2022-10-09T04:06:11.609Z,99485.38
2022-10-09T04:08:39.196Z,99489.16
2022-10-09T04:11:06.680Z,99489.06
2022-10-09T04:13:34.150Z,99483.69
2022-10-09T04:16:01.669Z,99484.75
2022-10-09T04:18:29.175Z,99493.81
2022-10-09T04:20:57.360Z,99489.41
2022-10-09T04:23:26.588Z,99482.19
2022-10-09T04:25:55.514Z,99487.56
2022-10-09T04:28:25.963Z,99487.66
2022-10-09T04:30:53.576Z,99487.66
2022-10-09T04:33:21.089Z,99483.41
2022-10-09T04:35:53.865Z,99486.03
2022-10-09T04:38:21.657Z,99486.03
2022-10-09T04:41:05.301Z,99480.91
2022-10-09T04:43:34.228Z,99484.47
2022-10-09T04:46:11.105Z,99481.47
2022-10-09T04:48:40.270Z,99483.47
2022-10-09T04:51:08.696Z,99486.31
2022-10-09T04:53:36.967Z,99477.28
2022-10-09T04:56:06.921Z,99479.09
2022-10-09T04:58:39.619Z,99482.78
2022-10-09T05:01:09.601Z,99480.94
2022-10-09T05:03:37.819Z,99470.28
2022-10-09T05:06:07.764Z,99474.72
2022-10-09T05:08:36.058Z,99472.16
2022-10-09T05:11:09.264Z,99464.03
2022-10-09T05:13:40.308Z,99479.66
2022-10-09T05:16:10.256Z,99477.09
2022-10-09T05:18:45.853Z,99479.78
2022-10-09T05:21:13.861Z,99472.59
2022-10-09T05:23:41.448Z,99473.44
2022-10-09T05:26:12.532Z,99477.88
2022-10-09T05:28:40.387Z,99475.69
2022-10-09T05:31:08.644Z,99477.97
2022-10-09T05:33:36.581Z,99480.78
2022-10-09T05:36:05.242Z,99472.72
2022-10-09T05:38:33.606Z,99478.03
2022-10-09T05:41:03.838Z,99474.34
2022-10-09T05:43:34.275Z,99479.47
2022-10-09T05:46:10.679Z,99484.78
2022-10-09T05:48:40.239Z,99486.47
2022-10-09T05:51:21.061Z,99480.94
2022-10-09T05:53:48.970Z,99481.81
2022-10-09T05:56:20.813Z,99479.16
2022-10-09T05:58:54.371Z,99481.69
2022-10-09T06:01:23.894Z,99468.28
2022-10-09T06:03:53.819Z,99466.59
2022-10-09T06:06:22.748Z,99478.13
2022-10-09T06:08:50.529Z,99472.59
2022-10-09T06:11:22.185Z,99471.78
2022-10-09T06:13:50.998Z,99470.72
2022-10-09T06:16:18.933Z,99473.41
2022-10-09T06:18:49.403Z,99483.16
2022-10-09T06:21:17.263Z,99474.28
2022-10-09T06:23:44.849Z,99479.53
2022-10-09T06:26:13.495Z,99475.78
2022-10-09T06:28:41.481Z,99477.84
2022-10-09T06:31:18.034Z,99483.16
2022-10-09T06:33:46.972Z,99478.47
2022-10-09T06:36:17.114Z,99482.03
2022-10-09T06:38:45.073Z,99488.63
2022-10-09T06:41:18.521Z,99482.50
2022-10-09T06:43:56.900Z,99490.38
2022-10-09T06:46:30.597Z,99491.69
2022-10-09T06:48:59.595Z,99493.81
2022-10-09T06:51:33.278Z,99488.84
2022-10-09T06:54:02.510Z,99498.84
2022-10-09T06:56:31.980Z,99483.81
2022-10-09T06:59:00.552Z,99493.41
2022-10-09T07:01:32.231Z,99492.59
2022-10-09T07:04:06.814Z,99500.38
2022-10-09T07:06:39.842Z,99496.69
2022-10-09T07:09:10.104Z,99511.28
2022-10-09T07:11:43.198Z,99496.47
2022-10-09T07:14:12.882Z,99499.00
2022-10-09T07:16:42.589Z,99502.06
2022-10-09T07:19:11.692Z,99489.00
2022-10-09T07:21:41.855Z,99498.56
2022-10-09T07:24:12.991Z,99494.47
2022-10-09T07:26:43.770Z,99497.00
2022-10-09T07:29:12.978Z,99493.03
2022-10-09T07:31:40.554Z,99483.13
2022-10-09T07:34:08.171Z,99487.72
2022-10-09T07:36:35.901Z,99488.44
2022-10-09T07:39:03.870Z,99488.91
2022-10-09T07:41:31.669Z,99488.50
2022-10-09T07:43:59.262Z,99484.06
2022-10-09T07:46:33.051Z,99487.22
2022-10-09T07:49:06.656Z,99482.94
2022-10-09T07:51:34.610Z,99485.94
2022-10-09T07:54:02.303Z,99480.50
2022-10-09T07:56:35.305Z,99480.22
2022-10-09T07:59:08.616Z,99475.31
2022-10-09T08:01:36.684Z,99477.59
2022-10-09T08:04:04.774Z,99476.28
2022-10-09T08:06:33.156Z,99480.75
2022-10-09T08:09:02.082Z,99472.47
2022-10-09T08:11:30.142Z,99473.22
2022-10-09T08:13:58.199Z,99474.41
2022-10-09T08:16:26.472Z,99462.91
2022-10-09T08:18:55.753Z,99470.22
2022-10-09T08:21:23.465Z,99468.72
2022-10-09T08:23:55.437Z,99473.03
2022-10-09T08:26:24.362Z,99460.56
2022-10-09T08:29:01.130Z,99464.44
2022-10-09T08:31:29.083Z,99455.53
2022-10-09T08:33:59.230Z,99455.00
2022-10-09T08:36:27.384Z,99446.09
2022-10-09T08:38:55.288Z,99444.38
2022-10-09T08:41:22.887Z,99450.25
2022-10-09T08:43:56.549Z,99445.38
2022-10-09T08:46:28.429Z,99443.69
2022-10-09T08:48:56.385Z,99439.84
2022-10-09T08:51:27.798Z,99441.81
2022-10-09T08:54:05.626Z,99436.28
2022-10-09T08:56:33.334Z,99430.63
2022-10-09T08:59:02.006Z,99424.59
2022-10-09T09:01:36.123Z,99420.97
2022-10-09T09:04:09.665Z,99423.97
2022-10-09T09:06:47.901Z,99424.72
2022-10-09T09:09:55.896Z,99417.31
2022-10-09T09:12:36.197Z,99424.09
2022-10-09T09:15:26.265Z,99418.03
2022-10-09T09:18:10.609Z,99416.97
2022-10-09T09:21:04.201Z,99406.81
2022-10-09T09:23:38.681Z,99400.34
2022-10-09T09:26:18.330Z,99408.81
2022-10-09T09:28:47.131Z,99401.19
2022-10-09T09:31:19.175Z,99393.34
2022-10-09T09:33:52.774Z,99400.03
2022-10-09T09:36:40.562Z,99390.13
2022-10-09T09:40:07.761Z,99386.13
2022-10-09T09:42:07.750Z,99377.63
2022-10-09T09:44:39.715Z,99380.03
2022-10-09T09:47:20.020Z,99382.91
2022-10-09T09:50:02.028Z,99387.31
2022-10-09T09:52:36.828Z,99373.50
2022-10-09T09:55:05.396Z,99378.56
2022-10-09T09:57:42.817Z,99369.59
2022-10-09T10:00:16.675Z,99366.19
2022-10-09T10:02:44.527Z,99363.59
2022-10-09T10:05:23.517Z,99359.97
2022-10-09T10:07:51.666Z,99357.88
2022-10-09T10:10:25.895Z,99357.91
2022-10-09T10:12:58.050Z,99358.97
2022-10-09T10:15:33.472Z,99344.06
2022-10-09T10:18:07.234Z,99336.00
2022-10-09T10:21:02.418Z,99344.31
2022-10-09T10:23:33.146Z,99334.81
2022-10-09T10:26:03.900Z,99329.06
2022-10-09T10:28:37.462Z,99329.66
2022-10-09T10:31:08.226Z,99326.16
2022-10-09T10:33:36.271Z,99332.41
2022-10-09T10:36:04.509Z,99325.72
2022-10-09T10:38:52.321Z,99328.06
2022-10-09T10:41:37.663Z,99318.63
2022-10-09T10:44:19.355Z,99313.50
2022-10-09T10:47:01.864Z,99315.28
2022-10-09T10:49:33.643Z,99318.28
2022-10-09T10:52:16.229Z,99315.06
2022-10-09T10:55:09.959Z,99312.97
2022-10-09T10:58:24.534Z,99306.22
2022-10-09T11:01:10.381Z,99306.97
2022-10-09T11:03:47.282Z,99306.34
2022-10-09T11:06:24.893Z,99307.63
2022-10-09T11:09:17.271Z,99304.97
2022-10-09T11:11:57.161Z,99296.50
2022-10-09T11:14:44.506Z,99297.25
2022-10-09T11:17:49.836Z,99288.38
2022-10-09T11:20:54.989Z,99299.75
2022-10-09T11:23:28.243Z,99284.31
2022-10-09T11:26:33.298Z,99269.91
2022-10-09T11:29:38.763Z,99269.66
2022-10-09T11:32:43.729Z,99274.00
2022-10-09T11:35:49.430Z,99266.13
2022-10-09T11:38:54.775Z,99261.66
2022-10-09T11:41:59.876Z,99257.44
2022-10-09T11:44:41.765Z,99240.66
2022-10-09T11:47:21.399Z,99242.66
2022-10-09T11:50:26.516Z,99240.06
2022-10-09T11:53:31.860Z,99244.50
2022-10-09T11:56:08.381Z,99221.47
2022-10-09T11:58:36.073Z,99228.84
2022-10-09T12:01:47.620Z,99221.88
2022-10-09T12:04:53.533Z,99218.00
2022-10-09T12:10:49.083Z,99206.63
2022-10-09T12:13:54.443Z,99210.84
2022-10-09T12:16:59.938Z,99196.56
2022-10-09T12:19:34.989Z,99199.75
2022-10-09T12:22:04.398Z,99203.19
2022-10-09T12:24:45.009Z,99201.75
2022-10-09T12:27:21.262Z,99192.47
2022-10-09T12:29:56.399Z,99186.03
2022-10-09T12:32:32.296Z,99176.03
2022-10-09T12:35:01.062Z,99187.78
2022-10-09T12:37:35.565Z,99171.91
2022-10-09T12:40:30.272Z,99172.03
2022-10-09T12:42:58.949Z,99162.00
2022-10-09T12:45:30.423Z,99164.78
2022-10-09T12:48:00.451Z,99157.28
2022-10-09T12:50:34.542Z,99150.59
2022-10-09T12:53:26.498Z,99143.50
2022-10-09T12:55:59.363Z,99151.91
2022-10-09T12:58:39.425Z,99143.44
2022-10-09T13:01:13.444Z,99142.97
2022-10-09T13:03:44.124Z,99145.03
2022-10-09T13:06:14.465Z,99136.44
2022-10-09T13:08:42.545Z,99132.69
2022-10-09T13:11:18.593Z,99130.44
2022-10-09T13:13:51.302Z,99131.00
2022-10-09T13:16:18.729Z,99133.25
2022-10-09T13:18:57.642Z,99133.66
2022-10-09T13:21:35.213Z,99124.78
2022-10-09T13:24:13.412Z,99125.09
2022-10-09T13:26:43.381Z,99121.44
2022-10-09T13:29:13.116Z,99116.19
2022-10-09T13:31:43.684Z,99113.84
2022-10-09T13:34:14.645Z,99111.91
2022-10-09T13:36:41.890Z,99101.94
2022-10-09T13:39:15.612Z,99106.34
2022-10-09T13:41:44.795Z,99104.00
2022-10-09T13:44:11.878Z,99101.63
2022-10-09T13:46:38.880Z,99102.53
2022-10-09T13:49:05.935Z,99097.44
2022-10-09T13:51:33.079Z,99099.72
2022-10-09T13:54:00.223Z,99095.88
2022-10-09T13:56:27.897Z,99093.84
2022-10-09T13:58:55.105Z,99078.03
2022-10-09T14:01:22.305Z,99077.69
2022-10-09T14:03:50.152Z,99074.06
2022-10-09T14:06:17.488Z,99073.22
2022-10-09T14:08:44.674Z,99067.72
2022-10-09T14:11:11.775Z,99062.38
2022-10-09T14:13:38.843Z,99050.72
2022-10-09T14:16:07.231Z,99051.13
2022-10-09T14:18:34.667Z,99050.44
2022-10-09T14:21:13.899Z,99055.19
2022-10-09T14:23:47.283Z,99051.22
2022-10-09T14:26:14.701Z,99053.81
2022-10-09T14:28:42.045Z,99042.66
2022-10-09T14:31:09.173Z,99046.03
2022-10-09T14:33:36.177Z,99037.25
2022-10-09T14:36:16.263Z,99043.94
2022-10-09T14:38:43.377Z,99044.88
2022-10-09T14:41:11.882Z,99033.19
2022-10-09T14:43:38.994Z,99025.03
2022-10-09T14:46:15.645Z,99026.56
2022-10-09T14:48:45.127Z,99026.59
2022-10-09T14:51:15.757Z,99024.81
2022-10-09T14:53:43.293Z,99020.75
2022-10-09T14:56:15.030Z,99018.34
2022-10-09T14:58:42.802Z,99028.06
2022-10-09T15:01:19.070Z,99019.28
2022-10-09T15:03:48.140Z,99018.97
2022-10-09T15:06:19.966Z,99013.13
2022-10-09T15:08:47.010Z,99006.03
2022-10-09T15:11:14.117Z,99000.66
2022-10-09T15:13:41.178Z,99002.28
2022-10-09T15:16:12.463Z,98989.09
2022-10-09T15:18:39.763Z,98994.38
2022-10-09T15:21:14.141Z,98984.31
2022-10-09T15:23:41.767Z,98991.59
2022-10-09T15:26:09.962Z,98993.28
2022-10-09T15:28:39.322Z,98994.19
2022-10-09T15:31:16.553Z,98993.00
2022-10-09T15:33:43.613Z,98995.59
2022-10-09T15:36:10.652Z,98990.41
2022-10-09T15:38:37.684Z,98983.50
2022-10-09T15:41:04.907Z,98975.41
2022-10-09T15:43:36.430Z,98978.22
2022-10-09T15:46:06.125Z,98985.06
2022-10-09T15:48:33.197Z,98981.16
2022-10-09T15:51:06.877Z,98978.88
2022-10-09T15:53:34.231Z,98968.66
2022-10-09T15:56:06.508Z,98968.91
2022-10-09T15:58:33.684Z,98968.84
2022-10-09T16:01:07.788Z,98965.44
2022-10-09T16:03:37.246Z,98972.19
2022-10-09T16:06:08.859Z,98964.41
2022-10-09T16:08:37.110Z,98961.53
2022-10-09T16:11:10.684Z,98968.50
2022-10-09T16:13:41.176Z,98962.59
2022-10-09T16:16:14.037Z,98954.84
2022-10-09T16:18:41.067Z,98959.03
2022-10-09T16:21:12.191Z,98958.97
2022-10-09T16:23:39.752Z,98953.59
2022-10-09T16:26:17.266Z,98954.09
2022-10-09T16:28:46.588Z,98946.66
2022-10-09T16:31:34.718Z,98939.41
2022-10-09T16:34:04.953Z,98940.59
2022-10-09T16:36:32.097Z,98945.03
2022-10-09T16:38:59.798Z,98942.16
2022-10-09T16:41:27.118Z,98939.63
2022-10-09T16:43:56.824Z,98948.91
2022-10-09T16:46:24.044Z,98948.28
2022-10-09T16:48:53.105Z,98947.47
2022-10-09T16:51:27.717Z,98948.03
2022-10-09T16:53:58.758Z,98944.53
2022-10-09T16:56:30.783Z,98950.56
2022-10-09T16:59:01.209Z,98957.53
2022-10-09T17:01:30.084Z,98944.69
2022-10-09T17:04:25.241Z,98943.94
2022-10-09T17:06:59.106Z,98950.69
2022-10-09T17:09:51.256Z,98948.25
2022-10-09T17:12:39.570Z,98952.50
2022-10-09T17:15:07.517Z,98955.78
2022-10-09T17:17:34.617Z,98957.56
2022-10-09T17:20:01.620Z,98953.72
2022-10-09T17:22:28.747Z,98957.97
2022-10-09T17:24:55.829Z,98952.75
2022-10-09T17:27:22.896Z,98961.47
2022-10-09T17:29:50.022Z,98956.25
2022-10-09T17:32:17.070Z,98963.22
2022-10-09T17:34:45.819Z,98956.25
2022-10-09T17:37:13.448Z,98963.00
2022-10-09T17:39:43.177Z,98950.81
2022-10-09T17:42:11.236Z,98955.81
2022-10-09T17:44:38.409Z,98954.81
2022-10-09T17:47:06.187Z,98960.19
2022-10-09T17:49:33.295Z,98962.94
2022-10-09T17:52:00.345Z,98962.13
2022-10-09T17:54:27.446Z,98963.63
2022-10-09T17:56:54.666Z,98965.50
2022-10-09T17:59:21.952Z,98960.84
2022-10-09T18:01:48.969Z,98962.88
2022-10-09T18:04:17.120Z,98958.66
2022-10-09T18:06:45.026Z,98961.28
2022-10-09T18:09:12.294Z,98958.50
2022-10-09T18:11:39.435Z,98961.69
2022-10-09T18:14:06.517Z,98955.53
2022-10-09T18:16:36.872Z,98953.53
2022-10-09T18:19:18.211Z,98958.75
2022-10-09T18:21:49.119Z,98944.34
2022-10-09T18:24:16.782Z,98951.63
2022-10-09T18:26:44.526Z,98947.44
2022-10-09T18:29:11.770Z,98955.72
2022-10-09T18:31:39.071Z,98949.53
2022-10-09T18:34:06.362Z,98951.47
2022-10-09T18:36:35.013Z,98943.66
2022-10-09T18:39:14.592Z,98951.69
2022-10-09T18:41:42.749Z,98948.19
2022-10-09T18:44:17.221Z,98948.59
2022-10-09T18:46:49.891Z,98945.31
2022-10-09T18:49:21.446Z,98945.06
2022-10-09T18:51:49.458Z,98941.84
2022-10-09T18:54:21.110Z,98949.50
2022-10-09T18:56:48.651Z,98935.97
2022-10-09T18:59:20.907Z,98937.25
2022-10-09T19:01:48.508Z,98935.88
2022-10-09T19:04:15.833Z,98932.00
2022-10-09T19:06:42.838Z,98932.03
2022-10-09T19:09:10.038Z,98935.53
2022-10-09T19:11:37.138Z,98932.03
2022-10-09T19:14:04.208Z,98932.63
2022-10-09T19:16:34.956Z,98936.09
2022-10-09T19:19:06.597Z,98940.66
2022-10-09T19:21:34.079Z,98940.38
2022-10-09T19:24:04.461Z,98939.28
2022-10-09T19:26:40.609Z,98941.94
2022-10-09T19:29:07.967Z,98937.94
2022-10-09T19:31:36.019Z,98931.44
2022-10-09T19:34:04.649Z,98929.34
2022-10-09T19:36:34.190Z,98938.81
2022-10-09T19:39:02.422Z,98932.03
2022-10-09T19:41:29.984Z,98927.19
2022-10-09T19:43:57.253Z,98923.97
2022-10-09T19:46:24.334Z,98924.91
2022-10-09T19:48:52.035Z,98921.34
2022-10-09T19:51:24.910Z,98925.06
2022-10-09T19:53:53.472Z,98922.34
2022-10-09T19:56:26.020Z,98921.94
2022-10-09T19:58:55.080Z,98927.06
2022-10-09T20:01:27.107Z,98925.22
2022-10-09T20:04:01.454Z,98917.72
2022-10-09T20:06:28.965Z,98917.94
2022-10-09T20:08:56.447Z,98926.22
2022-10-09T20:11:26.122Z,98920.69
2022-10-09T20:13:56.177Z,98923.66
2022-10-09T20:16:25.928Z,98928.16
2022-10-09T20:18:56.434Z,98932.34
2022-10-09T20:21:51.318Z,98930.53
2022-10-09T20:24:18.633Z,98925.81
2022-10-09T20:26:46.029Z,98928.84
2022-10-09T20:29:13.131Z,98926.44
2022-10-09T20:31:40.847Z,98926.44
2022-10-09T20:34:08.190Z,98927.66
2022-10-09T20:36:37.786Z,98934.28
2022-10-09T20:39:10.294Z,98929.81
2022-10-09T20:41:38.340Z,98927.97
2022-10-09T20:44:06.874Z,98929.75
2022-10-09T20:46:37.325Z,98925.63
2022-10-09T20:49:11.780Z,98922.88
2022-10-09T20:51:39.859Z,98923.34
2022-10-09T20:54:09.166Z,98925.28
2022-10-09T20:56:36.770Z,98919.81
2022-10-09T20:59:04.165Z,98921.91
2022-10-09T21:01:31.670Z,98911.84
2022-10-09T21:03:59.466Z,98915.53
2022-10-09T21:06:27.389Z,98914.38
2022-10-09T21:08:54.773Z,98913.81
2022-10-09T21:11:22.600Z,98920.59
2022-10-09T21:13:50.347Z,98921.19
2022-10-09T21:16:22.613Z,98924.19
2022-10-09T21:18:55.677Z,98916.91
2022-10-09T21:21:23.105Z,98929.31
2022-10-09T21:23:52.782Z,98925.81
2022-10-09T21:26:22.236Z,98933.78
2022-10-09T21:28:54.239Z,98933.69
2022-10-09T21:31:31.172Z,98925.94
2022-10-09T21:34:05.900Z,98922.13
2022-10-09T21:37:08.534Z,98918.38
2022-10-09T21:39:34.717Z,98925.78
2022-10-09T21:42:02.041Z,98935.09
2022-10-09T21:44:30.041Z,98919.03
2022-10-09T21:46:57.108Z,98915.44
2022-10-09T21:49:27.205Z,98913.28
2022-10-09T21:51:55.431Z,98913.53
2022-10-09T21:54:23.282Z,98908.00
2022-10-09T21:56:50.647Z,98908.19
2022-10-09T21:59:17.913Z,98911.88
2022-10-09T22:01:45.354Z,98914.88
2022-10-09T22:04:12.718Z,98914.97
2022-10-09T22:06:41.123Z,98926.00
2022-10-09T22:09:08.198Z,98917.13
2022-10-09T22:11:35.281Z,98918.28
2022-10-09T22:14:02.382Z,98919.44
2022-10-09T22:16:29.736Z,98915.84
2022-10-09T22:18:57.053Z,98904.53
2022-10-09T22:21:24.163Z,98904.03
2022-10-09T22:23:51.353Z,98905.97
2022-10-09T22:26:22.308Z,98912.09
2022-10-09T22:28:50.558Z,98907.03
2022-10-09T22:31:24.088Z,98904.13
2022-10-09T22:33:53.983Z,98901.59
2022-10-09T22:36:24.022Z,98900.72
2022-10-09T22:39:01.804Z,98900.72
2022-10-09T22:41:30.443Z,98897.31
2022-10-09T22:43:59.292Z,98895.00
2022-10-09T22:46:33.340Z,98895.41
2022-10-09T22:49:01.139Z,98885.78
2022-10-09T22:51:29.530Z,98880.09
2022-10-09T22:53:58.345Z,98888.22
2022-10-09T22:56:33.821Z,98877.56
2022-10-09T22:59:01.814Z,98877.00
2022-10-09T23:01:36.337Z,98880.88
2022-10-09T23:04:07.252Z,98873.09
2022-10-09T23:06:34.544Z,98873.84
2022-10-09T23:09:04.972Z,98872.38
2022-10-09T23:11:32.257Z,98868.44
2022-10-09T23:14:00.508Z,98875.44
2022-10-09T23:16:29.645Z,98878.84
2022-10-09T23:18:58.027Z,98873.59
2022-10-09T23:21:25.746Z,98872.25
2022-10-09T23:23:53.576Z,98875.66
2022-10-09T23:26:31.851Z,98874.09
2022-10-09T23:29:06.312Z,98870.97
2022-10-09T23:31:34.345Z,98877.28
2022-10-09T23:34:07.447Z,98874.50
2022-10-09T23:36:35.388Z,98870.41
2022-10-09T23:39:05.667Z,98877.78
2022-10-09T23:41:33.360Z,98879.81
2022-10-09T23:44:00.584Z,98880.28
2022-10-09T23:46:32.873Z,98873.81
2022-10-09T23:49:00.951Z,98875.59
2022-10-09T23:51:28.686Z,98882.91
2022-10-09T23:53:57.010Z,98871.28
2022-10-09T23:56:28.986Z,98882.53
2022-10-09T23:58:58.034Z,98877.84
